createdAt,value
2019-06-15T00:01:24.203Z,0.00
2019-06-15T00:02:17.799Z,0.00
2019-06-15T00:03:17.789Z,0.00
2019-06-15T00:04:21.444Z,0.00
2019-06-15T00:05:22.170Z,0.00
2019-06-15T00:06:25.842Z,0.00
2019-06-15T00:07:55.505Z,0.00
2019-06-15T00:08:18.734Z,0.00
2019-06-15T00:13:22.974Z,0.00
2019-06-15T00:14:25.687Z,0.00
2019-06-15T00:15:28.454Z,0.00
2019-06-15T00:18:31.426Z,0.00
2019-06-15T00:20:02.160Z,0.00
2019-06-15T00:21:04.815Z,0.00
2019-06-15T00:22:56.951Z,0.00
2019-06-15T00:24:34.624Z,0.00
2019-06-15T00:24:50.662Z,0.00
2019-06-15T00:26:22.032Z,0.00
2019-06-15T00:26:50.663Z,0.00
2019-06-15T00:27:57.526Z,0.00
2019-06-15T00:28:55.192Z,0.00
2019-06-15T00:29:56.034Z,0.00
2019-06-15T00:34:12.575Z,0.00
2019-06-15T00:35:03.744Z,0.00
2019-06-15T00:38:48.748Z,0.00
2019-06-15T00:39:40.968Z,0.00
2019-06-15T00:44:23.104Z,0.00
2019-06-15T00:45:47.407Z,0.00
2019-06-15T00:46:47.236Z,0.00
2019-06-15T00:48:10.886Z,0.00
2019-06-15T00:48:28.788Z,0.00
2019-06-15T00:49:23.063Z,0.00
2019-06-15T00:50:24.178Z,0.00
2019-06-15T00:51:23.239Z,0.00
2019-06-15T00:52:49.580Z,0.00
2019-06-15T00:54:02.413Z,0.00
2019-06-15T00:54:22.999Z,0.00
2019-06-15T00:55:29.868Z,0.00
2019-06-15T00:57:07.634Z,0.00
2019-06-15T00:58:01.261Z,0.00
2019-06-15T00:59:07.219Z,0.00
2019-06-15T00:59:23.957Z,0.00
2019-06-15T01:02:54.616Z,0.00
2019-06-15T01:03:50.779Z,0.00
2019-06-15T01:05:35.044Z,0.00
2019-06-15T01:06:10.222Z,0.00
2019-06-15T01:07:05.987Z,0.00
2019-06-15T01:09:07.612Z,0.00
2019-06-15T01:10:35.196Z,0.00
2019-06-15T01:12:33.487Z,0.00
2019-06-15T01:14:05.651Z,0.00
2019-06-15T01:14:35.756Z,0.00
2019-06-15T01:15:26.869Z,0.00
2019-06-15T01:16:28.560Z,0.00
2019-06-15T01:20:42.747Z,0.00
2019-06-15T01:21:56.995Z,0.00
2019-06-15T01:25:34.091Z,0.00
2019-06-15T01:26:50.696Z,0.00
2019-06-15T01:30:36.146Z,0.00
2019-06-15T01:31:03.155Z,0.00
2019-06-15T01:33:33.265Z,0.00
2019-06-15T01:35:14.199Z,0.00
2019-06-15T01:39:42.165Z,0.00
2019-06-15T01:40:47.016Z,0.00
2019-06-15T01:41:42.111Z,0.00
2019-06-15T01:42:42.107Z,0.00
2019-06-15T01:43:50.067Z,0.00
2019-06-15T01:45:02.422Z,0.00
2019-06-15T01:45:42.061Z,0.00
2019-06-15T01:46:42.049Z,0.00
2019-06-15T01:47:42.050Z,0.00
2019-06-15T01:48:42.025Z,0.00
2019-06-15T01:49:42.015Z,0.00
2019-06-15T01:50:42.005Z,0.00
2019-06-15T01:51:41.994Z,0.00
2019-06-15T01:52:41.991Z,0.00
2019-06-15T01:53:41.972Z,0.00
2019-06-15T01:54:42.017Z,0.00
2019-06-15T01:55:41.955Z,0.00
2019-06-15T01:56:41.937Z,0.00
2019-06-15T01:57:41.938Z,0.00
2019-06-15T01:58:41.986Z,0.00
2019-06-15T01:59:41.910Z,0.00
2019-06-15T02:00:41.898Z,0.00
2019-06-15T02:01:41.889Z,0.00
2019-06-15T02:02:41.932Z,0.00
2019-06-15T02:03:41.861Z,0.00
2019-06-15T02:04:41.852Z,0.00
2019-06-15T02:05:41.847Z,0.00
2019-06-15T02:06:41.832Z,0.00
2019-06-15T02:07:41.828Z,0.00
2019-06-15T02:08:41.866Z,0.00
2019-06-15T02:09:41.795Z,0.00
2019-06-15T02:10:41.783Z,0.00
2019-06-15T02:11:41.774Z,0.00
2019-06-15T02:12:42.049Z,0.00
2019-06-15T02:13:41.750Z,0.00
2019-06-15T02:14:41.793Z,0.00
2019-06-15T02:15:41.729Z,0.00
2019-06-15T02:16:41.723Z,0.00
2019-06-15T02:17:41.710Z,0.00
2019-06-15T02:18:41.713Z,0.00
2019-06-15T02:19:41.690Z,0.00
2019-06-15T02:20:41.733Z,0.00
2019-06-15T02:21:41.677Z,0.00
2019-06-15T02:22:41.856Z,0.00
2019-06-15T02:23:41.652Z,0.00
2019-06-15T02:24:41.672Z,0.00
2019-06-15T02:25:41.628Z,0.00
2019-06-15T02:26:41.616Z,0.00
2019-06-15T02:27:41.690Z,0.00
2019-06-15T02:28:41.620Z,0.00
2019-06-15T02:29:41.579Z,0.00
2019-06-15T02:30:41.584Z,0.00
2019-06-15T02:31:41.561Z,0.00
2019-06-15T02:32:41.599Z,0.00
2019-06-15T02:33:41.549Z,0.00
2019-06-15T02:34:41.526Z,0.00
2019-06-15T02:35:41.516Z,0.00
2019-06-15T02:36:41.505Z,0.00
2019-06-15T02:37:41.532Z,0.00
2019-06-15T02:38:41.493Z,0.00
2019-06-15T02:39:41.513Z,0.00
2019-06-15T02:40:41.463Z,0.00
2019-06-15T02:41:41.454Z,0.00
2019-06-15T02:42:41.441Z,0.00
2019-06-15T02:43:41.443Z,0.00
2019-06-15T02:44:41.418Z,0.00
2019-06-15T02:45:41.430Z,0.00
2019-06-15T02:46:41.399Z,0.00
2019-06-15T02:47:41.389Z,0.00
2019-06-15T02:48:41.388Z,0.00
2019-06-15T02:49:41.365Z,0.00
2019-06-15T02:50:41.371Z,0.00
2019-06-15T02:51:41.346Z,0.00
2019-06-15T02:52:41.400Z,0.00
2019-06-15T02:53:41.336Z,0.00
2019-06-15T02:54:41.317Z,0.00
2019-06-15T02:55:50.246Z,0.00
2019-06-15T02:56:42.288Z,0.00
2019-06-15T02:57:41.276Z,0.00
2019-06-15T02:58:41.317Z,0.00
2019-06-15T02:59:41.264Z,0.00
2019-06-15T03:00:41.244Z,0.00
2019-06-15T03:01:41.234Z,0.00
2019-06-15T03:02:41.223Z,0.00
2019-06-15T03:03:41.223Z,0.00
2019-06-15T03:04:41.203Z,0.00
2019-06-15T03:05:41.228Z,0.00
2019-06-15T03:06:41.180Z,0.00
2019-06-15T03:07:41.175Z,0.00
2019-06-15T03:08:41.168Z,0.00
2019-06-15T03:09:41.150Z,0.00
2019-06-15T03:10:41.139Z,0.00
2019-06-15T03:11:41.169Z,0.00
2019-06-15T03:12:41.120Z,0.00
2019-06-15T03:13:41.116Z,0.00
2019-06-15T03:14:41.095Z,0.00
2019-06-15T03:15:41.090Z,0.00
2019-06-15T03:16:41.074Z,0.00
2019-06-15T03:17:41.109Z,0.00
2019-06-15T03:18:41.067Z,0.00
2019-06-15T03:19:41.045Z,0.00
2019-06-15T03:20:41.030Z,5.62
2019-06-15T03:21:41.034Z,5.62
2019-06-15T03:22:41.014Z,5.62
2019-06-15T03:23:41.009Z,5.62
2019-06-15T03:24:41.039Z,5.62
2019-06-15T03:25:40.980Z,5.62
2019-06-15T03:26:40.969Z,5.62
2019-06-15T03:27:40.966Z,5.62
2019-06-15T03:28:40.963Z,5.62
2019-06-15T03:29:40.935Z,5.62
2019-06-15T03:30:40.987Z,5.62
2019-06-15T03:31:40.919Z,5.62
2019-06-15T03:32:40.908Z,5.62
2019-06-15T03:33:40.894Z,5.62
2019-06-15T03:34:40.891Z,5.62
2019-06-15T03:35:40.879Z,5.62
2019-06-15T03:36:40.910Z,11.25
2019-06-15T03:37:40.852Z,11.25
2019-06-15T03:38:40.850Z,11.25
2019-06-15T03:39:40.843Z,11.25
2019-06-15T03:40:40.818Z,16.88
2019-06-15T03:41:40.806Z,16.88
2019-06-15T03:42:40.835Z,16.88
2019-06-15T03:43:40.785Z,16.88
2019-06-15T03:44:40.790Z,22.50
2019-06-15T03:45:40.763Z,22.50
2019-06-15T03:46:40.756Z,28.12
2019-06-15T03:47:40.749Z,33.75
2019-06-15T03:48:40.785Z,39.38
2019-06-15T03:49:40.740Z,39.38
2019-06-15T03:50:40.712Z,45.00
2019-06-15T03:51:40.698Z,45.00
2019-06-15T03:52:40.690Z,45.00
2019-06-15T03:53:40.685Z,39.38
2019-06-15T03:54:40.761Z,39.38
2019-06-15T03:55:40.655Z,45.00
2019-06-15T03:56:40.661Z,50.62
2019-06-15T03:57:40.635Z,50.62
2019-06-15T03:58:40.631Z,50.62
2019-06-15T03:59:40.624Z,50.62
2019-06-15T04:00:40.637Z,50.62
2019-06-15T04:01:40.595Z,50.62
2019-06-15T04:02:40.589Z,50.62
2019-06-15T04:03:40.583Z,56.25
2019-06-15T04:04:40.573Z,61.88
2019-06-15T04:05:40.558Z,67.50
2019-06-15T04:06:40.574Z,67.50
2019-06-15T04:07:40.530Z,73.12
2019-06-15T04:08:40.523Z,73.12
2019-06-15T04:09:40.519Z,78.75
2019-06-15T04:10:40.498Z,84.38
2019-06-15T04:11:40.488Z,95.62
2019-06-15T04:12:40.510Z,95.62
2019-06-15T04:13:40.463Z,101.25
2019-06-15T04:14:40.465Z,106.88
2019-06-15T04:15:40.445Z,106.88
2019-06-15T04:16:40.433Z,101.25
2019-06-15T04:17:40.422Z,95.62
2019-06-15T04:18:40.475Z,84.38
2019-06-15T04:19:40.414Z,73.12
2019-06-15T04:20:40.391Z,61.88
2019-06-15T04:21:40.379Z,61.88
2019-06-15T04:22:40.367Z,56.25
2019-06-15T04:23:40.363Z,50.62
2019-06-15T04:24:40.405Z,45.00
2019-06-15T04:25:40.346Z,39.38
2019-06-15T04:26:40.331Z,39.38
2019-06-15T04:27:40.330Z,45.00
2019-06-15T04:28:40.308Z,50.62
2019-06-15T04:29:40.384Z,67.50
2019-06-15T04:30:40.285Z,78.75
2019-06-15T04:31:40.281Z,78.75
2019-06-15T04:32:40.290Z,78.75
2019-06-15T04:33:40.251Z,73.12
2019-06-15T04:34:40.257Z,73.12
2019-06-15T04:35:40.236Z,73.12
2019-06-15T04:36:40.226Z,78.75
2019-06-15T04:37:40.209Z,84.38
2019-06-15T04:38:40.265Z,84.38
2019-06-15T04:39:40.196Z,84.38
2019-06-15T04:40:40.178Z,90.00
2019-06-15T04:41:40.168Z,95.62
2019-06-15T04:42:40.172Z,106.88
2019-06-15T04:43:40.150Z,112.50
2019-06-15T04:44:40.202Z,123.75
2019-06-15T04:45:40.132Z,129.38
2019-06-15T04:46:40.113Z,123.75
2019-06-15T04:47:40.106Z,118.12
2019-06-15T04:48:40.100Z,118.12
2019-06-15T04:49:40.091Z,129.38
2019-06-15T04:50:40.078Z,140.62
2019-06-15T04:51:40.119Z,163.12
2019-06-15T04:52:40.058Z,180.00
2019-06-15T04:53:40.046Z,196.88
2019-06-15T04:54:40.086Z,202.50
2019-06-15T04:55:40.018Z,208.12
2019-06-15T04:56:50.508Z,225.00
2019-06-15T04:57:40.991Z,236.25
2019-06-15T04:58:39.991Z,230.62
2019-06-15T04:59:40.014Z,230.62
2019-06-15T05:00:39.978Z,303.75
2019-06-15T05:01:39.949Z,298.12
2019-06-15T05:02:39.940Z,264.38
2019-06-15T05:03:39.929Z,258.75
2019-06-15T05:04:39.913Z,258.75
2019-06-15T05:05:39.955Z,247.50
2019-06-15T05:06:39.892Z,241.88
2019-06-15T05:07:39.880Z,247.50
2019-06-15T05:08:39.870Z,253.12
2019-06-15T05:09:39.859Z,281.25
2019-06-15T05:10:39.858Z,247.50
2019-06-15T05:11:39.914Z,230.62
2019-06-15T05:12:39.834Z,225.00
2019-06-15T05:13:39.934Z,219.38
2019-06-15T05:14:39.809Z,225.00
2019-06-15T05:15:39.812Z,241.88
2019-06-15T05:16:39.783Z,264.38
2019-06-15T05:17:39.810Z,303.75
2019-06-15T05:18:39.765Z,343.12
2019-06-15T05:19:39.749Z,376.88
2019-06-15T05:20:39.750Z,388.12
2019-06-15T05:21:39.735Z,388.12
2019-06-15T05:22:39.720Z,388.12
2019-06-15T05:23:39.719Z,393.75
2019-06-15T05:24:39.699Z,399.38
2019-06-15T05:25:39.762Z,393.75
2019-06-15T05:26:39.682Z,376.88
2019-06-15T05:27:39.685Z,365.62
2019-06-15T05:28:39.652Z,354.38
2019-06-15T05:29:39.640Z,354.38
2019-06-15T05:30:39.649Z,343.12
2019-06-15T05:31:39.673Z,320.62
2019-06-15T05:32:39.613Z,292.50
2019-06-15T05:33:39.603Z,258.75
2019-06-15T05:34:39.597Z,230.62
2019-06-15T05:35:39.592Z,202.50
2019-06-15T05:36:39.565Z,174.38
2019-06-15T05:37:39.554Z,163.12
2019-06-15T05:38:39.580Z,168.75
2019-06-15T05:39:39.539Z,185.62
2019-06-15T05:40:39.564Z,180.00
2019-06-15T05:41:39.515Z,168.75
2019-06-15T05:42:39.506Z,163.12
2019-06-15T05:43:39.494Z,163.12
2019-06-15T05:44:39.524Z,168.75
2019-06-15T05:45:39.502Z,180.00
2019-06-15T05:46:39.467Z,191.25
2019-06-15T05:47:39.454Z,196.88
2019-06-15T05:48:39.436Z,202.50
2019-06-15T05:49:39.426Z,219.38
2019-06-15T05:50:39.434Z,253.12
2019-06-15T05:51:39.404Z,365.62
2019-06-15T05:52:39.446Z,258.75
2019-06-15T05:53:39.395Z,270.00
2019-06-15T05:54:39.372Z,360.00
2019-06-15T05:55:39.373Z,360.00
2019-06-15T05:56:48.446Z,461.25
2019-06-15T05:57:39.340Z,360.00
2019-06-15T05:58:39.329Z,973.12
2019-06-15T05:59:39.315Z,534.38
2019-06-15T06:00:39.324Z,343.12
2019-06-15T06:01:39.293Z,466.88
2019-06-15T06:02:39.286Z,331.88
2019-06-15T06:03:39.281Z,579.38
2019-06-15T06:04:39.261Z,736.88
2019-06-15T06:05:39.262Z,720.00
2019-06-15T06:06:39.240Z,759.38
2019-06-15T06:07:39.229Z,1029.38
2019-06-15T06:08:39.224Z,410.62
2019-06-15T06:09:39.207Z,618.75
2019-06-15T06:10:39.206Z,669.38
2019-06-15T06:11:39.185Z,1012.50
2019-06-15T06:12:39.174Z,916.88
2019-06-15T06:13:39.162Z,849.38
2019-06-15T06:14:39.178Z,455.62
2019-06-15T06:15:39.152Z,438.75
2019-06-15T06:16:39.131Z,416.25
2019-06-15T06:17:40.503Z,416.25
2019-06-15T06:18:39.110Z,410.62
2019-06-15T06:19:39.096Z,416.25
2019-06-15T06:20:39.107Z,444.38
2019-06-15T06:21:39.076Z,489.38
2019-06-15T06:22:39.067Z,511.88
2019-06-15T06:23:39.053Z,506.25
2019-06-15T06:24:39.043Z,438.75
2019-06-15T06:25:39.040Z,427.50
2019-06-15T06:26:39.028Z,388.12
2019-06-15T06:27:39.010Z,376.88
2019-06-15T06:28:38.999Z,388.12
2019-06-15T06:29:38.988Z,433.12
2019-06-15T06:30:38.988Z,365.62
2019-06-15T06:31:38.968Z,461.25
2019-06-15T06:32:38.967Z,410.62
2019-06-15T06:33:38.950Z,433.12
2019-06-15T06:34:38.936Z,568.12
2019-06-15T06:35:38.951Z,568.12
2019-06-15T06:36:38.915Z,579.38
2019-06-15T06:37:38.905Z,568.12
2019-06-15T06:38:38.898Z,511.88
2019-06-15T06:39:38.880Z,511.88
2019-06-15T06:40:38.868Z,568.12
2019-06-15T06:41:38.868Z,646.88
2019-06-15T06:42:38.845Z,669.38
2019-06-15T06:43:38.835Z,652.50
2019-06-15T06:44:38.840Z,680.62
2019-06-15T06:45:38.812Z,798.75
2019-06-15T06:46:38.812Z,810.00
2019-06-15T06:47:38.790Z,1395.00
2019-06-15T06:48:38.783Z,1158.75
2019-06-15T06:49:38.768Z,742.50
2019-06-15T06:50:41.257Z,1316.25
2019-06-15T06:51:38.765Z,1136.25
2019-06-15T06:52:38.736Z,978.75
2019-06-15T06:53:38.727Z,877.50
2019-06-15T06:54:38.718Z,787.50
2019-06-15T06:55:38.704Z,731.25
2019-06-15T06:56:38.711Z,708.75
2019-06-15T06:57:51.325Z,663.75
2019-06-15T06:58:39.671Z,635.62
2019-06-15T06:59:38.661Z,613.12
2019-06-15T07:00:38.649Z,601.88
2019-06-15T07:01:38.648Z,635.62
2019-06-15T07:02:38.637Z,646.88
2019-06-15T07:03:38.616Z,630.00
2019-06-15T07:04:38.606Z,680.62
2019-06-15T07:05:38.594Z,669.38
2019-06-15T07:06:38.593Z,680.62
2019-06-15T07:07:38.573Z,691.88
2019-06-15T07:08:38.573Z,691.88
2019-06-15T07:09:38.552Z,703.12
2019-06-15T07:10:38.544Z,708.75
2019-06-15T07:11:38.583Z,753.75
2019-06-15T07:12:38.525Z,821.25
2019-06-15T07:13:38.512Z,826.88
2019-06-15T07:14:38.507Z,860.62
2019-06-15T07:15:38.489Z,855.00
2019-06-15T07:16:38.488Z,826.88
2019-06-15T07:17:38.467Z,883.12
2019-06-15T07:18:38.455Z,894.38
2019-06-15T07:19:38.446Z,793.12
2019-06-15T07:20:38.444Z,725.62
2019-06-15T07:21:38.431Z,708.75
2019-06-15T07:22:38.412Z,742.50
2019-06-15T07:23:38.402Z,770.62
2019-06-15T07:24:38.411Z,860.62
2019-06-15T07:25:38.379Z,843.75
2019-06-15T07:26:38.697Z,849.38
2019-06-15T07:27:38.357Z,866.25
2019-06-15T07:28:38.348Z,933.75
2019-06-15T07:29:38.359Z,984.38
2019-06-15T07:30:38.324Z,1108.12
2019-06-15T07:31:38.319Z,1743.75
2019-06-15T07:32:38.340Z,1338.75
2019-06-15T07:33:38.294Z,1158.75
2019-06-15T07:34:38.284Z,871.88
2019-06-15T07:35:38.268Z,888.75
2019-06-15T07:36:38.258Z,1063.12
2019-06-15T07:37:38.261Z,1080.00
2019-06-15T07:38:38.283Z,1226.25
2019-06-15T07:39:38.225Z,1203.75
2019-06-15T07:40:38.214Z,1164.38
2019-06-15T07:41:38.203Z,1119.38
2019-06-15T07:42:39.425Z,1158.75
2019-06-15T07:43:38.182Z,1260.00
2019-06-15T07:44:38.228Z,1125.00
2019-06-15T07:45:38.186Z,1231.88
2019-06-15T07:46:38.154Z,1254.38
2019-06-15T07:47:38.161Z,1125.00
2019-06-15T07:48:38.133Z,973.12
2019-06-15T07:49:38.118Z,973.12
2019-06-15T07:50:38.161Z,995.62
2019-06-15T07:51:38.097Z,1063.12
2019-06-15T07:52:38.103Z,1130.62
2019-06-15T07:53:38.078Z,1170.00
2019-06-15T07:54:38.070Z,1158.75
2019-06-15T07:55:38.054Z,1243.12
2019-06-15T07:56:38.065Z,1293.75
2019-06-15T07:57:38.041Z,1248.75
2019-06-15T07:58:38.021Z,1147.50
2019-06-15T07:59:38.011Z,1001.25
2019-06-15T08:00:38.002Z,916.88
2019-06-15T08:01:37.990Z,877.50
2019-06-15T08:02:38.016Z,866.25
2019-06-15T08:03:38.004Z,883.12
2019-06-15T08:04:37.957Z,911.25
2019-06-15T08:05:37.947Z,928.12
2019-06-15T08:06:37.938Z,939.38
2019-06-15T08:07:37.939Z,911.25
2019-06-15T08:08:37.942Z,877.50
2019-06-15T08:09:37.904Z,900.00
2019-06-15T08:10:37.899Z,883.12
2019-06-15T08:11:37.886Z,843.75
2019-06-15T08:12:37.880Z,838.12
2019-06-15T08:13:37.861Z,815.62
2019-06-15T08:14:37.874Z,821.25
2019-06-15T08:15:37.849Z,826.88
2019-06-15T08:16:37.834Z,866.25
2019-06-15T08:17:37.831Z,922.50
2019-06-15T08:18:37.806Z,956.25
2019-06-15T08:19:37.798Z,950.62
2019-06-15T08:20:37.813Z,939.38
2019-06-15T08:21:37.783Z,1113.75
2019-06-15T08:22:37.773Z,1271.25
2019-06-15T08:23:37.751Z,1260.00
2019-06-15T08:24:37.747Z,1175.62
2019-06-15T08:25:37.730Z,1080.00
2019-06-15T08:26:37.746Z,961.88
2019-06-15T08:27:37.720Z,894.38
2019-06-15T08:28:40.617Z,838.12
2019-06-15T08:29:37.699Z,843.75
2019-06-15T08:30:37.676Z,922.50
2019-06-15T08:31:37.668Z,1091.25
2019-06-15T08:32:37.683Z,1372.50
2019-06-15T08:33:37.646Z,1411.88
2019-06-15T08:34:37.632Z,1282.50
2019-06-15T08:35:37.623Z,1215.00
2019-06-15T08:36:37.612Z,1327.50
2019-06-15T08:37:37.609Z,1327.50
2019-06-15T08:38:37.616Z,1310.62
2019-06-15T08:39:37.581Z,1153.12
2019-06-15T08:40:37.568Z,900.00
2019-06-15T08:41:37.557Z,826.88
2019-06-15T08:42:37.558Z,916.88
2019-06-15T08:43:37.535Z,967.50
2019-06-15T08:44:37.540Z,1035.00
2019-06-15T08:45:37.514Z,1113.75
2019-06-15T08:46:37.505Z,1113.75
2019-06-15T08:47:37.523Z,1074.38
2019-06-15T08:48:37.482Z,990.00
2019-06-15T08:49:37.472Z,900.00
2019-06-15T08:50:37.484Z,877.50
2019-06-15T08:51:37.451Z,894.38
2019-06-15T08:52:37.441Z,894.38
2019-06-15T08:53:37.438Z,905.62
2019-06-15T08:54:37.421Z,883.12
2019-06-15T08:55:37.409Z,871.88
2019-06-15T08:56:37.424Z,365.62
2019-06-15T08:57:40.316Z,258.75
2019-06-15T08:58:37.388Z,450.00
2019-06-15T08:59:37.364Z,680.62
2019-06-15T09:00:37.376Z,1192.50
2019-06-15T09:01:37.387Z,1158.75
2019-06-15T09:02:37.332Z,1040.62
2019-06-15T09:03:37.331Z,973.12
2019-06-15T09:04:37.359Z,950.62
2019-06-15T09:05:37.298Z,973.12
2019-06-15T09:06:37.289Z,1012.50
2019-06-15T09:07:37.304Z,1046.25
2019-06-15T09:08:37.276Z,1012.50
2019-06-15T09:09:37.257Z,995.62
2019-06-15T09:10:37.247Z,1029.38
2019-06-15T09:11:37.235Z,1147.50
2019-06-15T09:12:37.227Z,1119.38
2019-06-15T09:13:37.268Z,1170.00
2019-06-15T09:14:37.203Z,1203.75
2019-06-15T09:15:37.190Z,1248.75
2019-06-15T09:16:37.182Z,1243.12
2019-06-15T09:17:37.169Z,1243.12
2019-06-15T09:18:37.167Z,1310.62
2019-06-15T09:19:37.178Z,1378.12
2019-06-15T09:20:37.139Z,1614.38
2019-06-15T09:21:37.127Z,1513.12
2019-06-15T09:22:37.114Z,2401.88
2019-06-15T09:23:37.114Z,1805.62
2019-06-15T09:24:37.096Z,1434.38
2019-06-15T09:25:37.104Z,1350.00
2019-06-15T09:26:37.072Z,1350.00
2019-06-15T09:27:37.062Z,1316.25
2019-06-15T09:28:37.059Z,1276.88
2019-06-15T09:29:37.039Z,1220.62
2019-06-15T09:30:37.029Z,1192.50
2019-06-15T09:31:37.044Z,1175.62
2019-06-15T09:32:37.034Z,1136.25
2019-06-15T09:33:37.007Z,1046.25
2019-06-15T09:34:36.984Z,956.25
2019-06-15T09:35:36.975Z,916.88
2019-06-15T09:36:36.962Z,900.00
2019-06-15T09:37:36.976Z,866.25
2019-06-15T09:38:36.968Z,821.25
2019-06-15T09:39:36.935Z,781.88
2019-06-15T09:40:36.920Z,753.75
2019-06-15T09:41:36.951Z,770.62
2019-06-15T09:42:36.903Z,787.50
2019-06-15T09:43:36.930Z,810.00
2019-06-15T09:44:36.888Z,843.75
2019-06-15T09:45:36.867Z,900.00
2019-06-15T09:46:36.855Z,984.38
2019-06-15T09:47:36.844Z,1040.62
2019-06-15T09:48:36.834Z,1085.62
2019-06-15T09:49:36.862Z,1091.25
2019-06-15T09:50:36.812Z,1074.38
2019-06-15T09:51:36.805Z,1018.12
2019-06-15T09:52:36.793Z,945.00
2019-06-15T09:53:36.783Z,883.12
2019-06-15T09:54:36.780Z,832.50
2019-06-15T09:55:36.784Z,804.38
2019-06-15T09:56:36.749Z,793.12
2019-06-15T09:57:36.739Z,770.62
2019-06-15T09:58:36.730Z,742.50
2019-06-15T09:59:38.478Z,725.62
2019-06-15T10:00:36.708Z,720.00
2019-06-15T10:01:36.720Z,703.12
2019-06-15T10:02:36.685Z,675.00
2019-06-15T10:03:36.673Z,669.38
2019-06-15T10:04:36.687Z,669.38
2019-06-15T10:05:36.651Z,680.62
2019-06-15T10:06:36.640Z,697.50
2019-06-15T10:07:36.678Z,703.12
2019-06-15T10:08:36.621Z,708.75
2019-06-15T10:09:36.626Z,742.50
2019-06-15T10:10:36.598Z,787.50
2019-06-15T10:11:36.585Z,843.75
2019-06-15T10:12:36.574Z,916.88
2019-06-15T10:13:36.591Z,1035.00
2019-06-15T10:14:36.563Z,1136.25
2019-06-15T10:15:36.543Z,1203.75
2019-06-15T10:16:36.537Z,1220.62
2019-06-15T10:17:36.523Z,1158.75
2019-06-15T10:18:38.796Z,1085.62
2019-06-15T10:19:36.545Z,1018.12
2019-06-15T10:20:36.491Z,950.62
2019-06-15T10:21:36.478Z,905.62
2019-06-15T10:22:36.521Z,877.50
2019-06-15T10:23:36.457Z,871.88
2019-06-15T10:24:36.454Z,905.62
2019-06-15T10:25:36.467Z,961.88
2019-06-15T10:26:36.435Z,995.62
2019-06-15T10:27:36.412Z,1012.50
2019-06-15T10:28:36.408Z,1023.75
2019-06-15T10:29:42.023Z,1046.25
2019-06-15T10:30:37.400Z,1136.25
2019-06-15T10:31:36.368Z,1231.88
2019-06-15T10:32:36.358Z,1198.12
2019-06-15T10:33:36.352Z,1158.75
2019-06-15T10:34:36.359Z,1119.38
2019-06-15T10:35:36.326Z,1085.62
2019-06-15T10:36:36.340Z,1035.00
2019-06-15T10:37:36.314Z,990.00
2019-06-15T10:38:36.293Z,990.00
2019-06-15T10:39:36.293Z,1018.12
2019-06-15T10:40:36.271Z,1018.12
2019-06-15T10:41:36.262Z,1040.62
2019-06-15T10:42:36.273Z,1113.75
2019-06-15T10:43:36.239Z,1175.62
2019-06-15T10:44:36.238Z,1282.50
2019-06-15T10:45:36.225Z,1507.50
2019-06-15T10:46:36.210Z,1366.88
2019-06-15T10:47:36.201Z,1541.25
2019-06-15T10:48:36.207Z,2700.00
2019-06-15T10:49:36.186Z,2818.12
2019-06-15T10:50:36.163Z,4263.75
2019-06-15T10:51:36.153Z,4449.38
2019-06-15T10:52:36.145Z,2761.88
2019-06-15T10:53:36.133Z,4404.38
2019-06-15T10:54:36.183Z,4381.88
2019-06-15T10:55:36.112Z,1968.75
2019-06-15T10:56:36.099Z,1631.25
2019-06-15T10:57:36.091Z,1411.88
2019-06-15T10:58:36.080Z,1355.62
2019-06-15T10:59:36.333Z,1243.12
2019-06-15T11:00:36.072Z,1192.50
2019-06-15T11:01:36.053Z,1220.62
2019-06-15T11:02:36.038Z,1220.62
2019-06-15T11:03:36.025Z,1288.12
2019-06-15T11:04:36.017Z,1378.12
2019-06-15T11:05:36.016Z,1710.00
2019-06-15T11:06:36.003Z,1445.62
2019-06-15T11:07:35.984Z,1395.00
2019-06-15T11:08:35.972Z,1361.25
2019-06-15T11:09:35.966Z,1445.62
2019-06-15T11:10:36.035Z,1243.12
2019-06-15T11:11:35.945Z,1164.38
2019-06-15T11:12:45.726Z,1456.88
2019-06-15T11:13:36.920Z,4505.62
2019-06-15T11:14:35.914Z,2902.50
2019-06-15T11:15:35.907Z,2446.88
2019-06-15T11:16:35.890Z,2531.25
2019-06-15T11:17:35.883Z,4353.75
2019-06-15T11:18:35.900Z,4263.75
2019-06-15T11:19:35.856Z,4185.00
2019-06-15T11:20:35.853Z,2941.88
2019-06-15T11:21:35.839Z,3886.88
2019-06-15T11:22:35.826Z,3611.25
2019-06-15T11:23:35.814Z,4410.00
2019-06-15T11:24:35.824Z,4291.88
2019-06-15T11:25:35.803Z,3825.00
2019-06-15T11:26:35.787Z,2396.25
2019-06-15T11:27:35.774Z,3481.88
2019-06-15T11:28:35.764Z,2705.62
2019-06-15T11:29:35.755Z,2165.62
2019-06-15T11:30:35.772Z,1895.62
2019-06-15T11:31:35.731Z,2356.88
2019-06-15T11:32:35.723Z,1693.12
2019-06-15T11:33:35.717Z,1698.75
2019-06-15T11:34:35.702Z,3183.75
2019-06-15T11:35:35.708Z,2722.50
2019-06-15T11:36:35.697Z,4010.62
2019-06-15T11:37:35.672Z,3408.75
2019-06-15T11:38:35.662Z,3870.00
2019-06-15T11:39:35.651Z,4055.62
2019-06-15T11:40:35.650Z,2829.38
2019-06-15T11:41:35.637Z,1530.00
2019-06-15T11:42:35.632Z,1209.38
2019-06-15T11:43:35.610Z,1260.00
2019-06-15T11:44:35.600Z,1141.88
2019-06-15T11:45:35.604Z,1901.25
2019-06-15T11:46:35.582Z,1963.12
2019-06-15T11:47:35.571Z,1743.75
2019-06-15T11:48:35.599Z,2880.00
2019-06-15T11:49:35.549Z,2368.12
2019-06-15T11:50:35.548Z,1755.00
2019-06-15T11:51:35.529Z,3043.12
2019-06-15T11:52:35.519Z,3796.88
2019-06-15T11:53:35.508Z,4196.25
2019-06-15T11:54:35.518Z,3976.88
2019-06-15T11:55:39.572Z,4145.62
2019-06-15T11:56:35.479Z,4128.75
2019-06-15T11:57:35.469Z,3971.25
2019-06-15T11:58:35.459Z,3937.50
2019-06-15T11:59:35.449Z,3892.50
2019-06-15T12:00:35.470Z,3892.50
2019-06-15T12:01:35.430Z,3774.38
2019-06-15T12:02:35.419Z,3847.50
2019-06-15T12:03:35.410Z,3971.25
2019-06-15T12:04:57.499Z,3954.38
2019-06-15T12:05:36.403Z,3937.50
2019-06-15T12:06:35.410Z,3965.62
2019-06-15T12:07:35.381Z,3858.75
2019-06-15T12:08:35.375Z,2480.62
2019-06-15T12:09:35.356Z,4134.38
2019-06-15T12:10:35.384Z,4100.62
2019-06-15T12:11:35.332Z,4241.25
2019-06-15T12:12:35.324Z,4466.25
2019-06-15T12:13:35.314Z,3718.12
2019-06-15T12:14:35.306Z,2688.75
2019-06-15T12:15:35.305Z,1361.25
2019-06-15T12:16:35.294Z,4471.88
2019-06-15T12:17:35.282Z,1175.62
2019-06-15T12:18:35.268Z,1226.25
2019-06-15T12:19:35.254Z,4106.25
2019-06-15T12:20:35.246Z,1170.00
2019-06-15T12:21:35.261Z,1164.38
2019-06-15T12:22:35.225Z,1845.00
2019-06-15T12:23:35.214Z,1839.38
2019-06-15T12:24:35.205Z,2964.38
2019-06-15T12:25:35.205Z,3706.88
2019-06-15T12:26:35.201Z,1940.62
2019-06-15T12:27:35.182Z,1906.88
2019-06-15T12:28:35.163Z,1524.38
2019-06-15T12:29:35.154Z,1248.75
2019-06-15T12:30:46.245Z,1198.12
2019-06-15T12:31:36.189Z,1113.75
2019-06-15T12:32:35.129Z,1068.75
2019-06-15T12:33:35.121Z,1046.25
2019-06-15T12:34:35.109Z,1006.88
2019-06-15T12:35:35.096Z,973.12
2019-06-15T12:36:35.095Z,1023.75
2019-06-15T12:37:35.079Z,1665.00
2019-06-15T12:38:35.063Z,2058.75
2019-06-15T12:39:41.396Z,1929.38
2019-06-15T12:40:36.041Z,3678.75
2019-06-15T12:41:35.046Z,1203.75
2019-06-15T12:42:35.023Z,1265.62
2019-06-15T12:43:35.018Z,1361.25
2019-06-15T12:44:35.007Z,1344.38
2019-06-15T12:45:35.018Z,2311.88
2019-06-15T12:46:34.994Z,2115.00
2019-06-15T12:47:34.974Z,3915.00
2019-06-15T12:48:34.965Z,3954.38
2019-06-15T12:49:34.954Z,2289.38
2019-06-15T12:50:34.943Z,3853.12
2019-06-15T12:51:34.948Z,3785.62
2019-06-15T12:52:34.924Z,3791.25
2019-06-15T12:53:34.919Z,3836.25
2019-06-15T12:54:34.906Z,3847.50
2019-06-15T12:55:34.892Z,1473.75
2019-06-15T12:56:34.890Z,1636.88
2019-06-15T12:57:34.882Z,1541.25
2019-06-15T12:58:34.861Z,2317.50
2019-06-15T12:59:34.851Z,3228.75
2019-06-15T13:00:34.842Z,2053.12
2019-06-15T13:01:34.846Z,1209.38
2019-06-15T13:02:34.821Z,1271.25
2019-06-15T13:03:34.829Z,1226.25
2019-06-15T13:04:34.802Z,1271.25
2019-06-15T13:05:34.792Z,1321.88
2019-06-15T13:06:34.788Z,1338.75
2019-06-15T13:07:34.772Z,1361.25
2019-06-15T13:08:34.763Z,1288.12
2019-06-15T13:09:34.753Z,1248.75
2019-06-15T13:10:34.741Z,1147.50